sensor_id;sensor_type;location;lat;lon;timestamp;P1;durP1;ratioP1;P2;durP2;ratioP2
78324;SDS011;67584;51.400;6.692;2023-06-14T00:01:37;8.45;;;6.20;;
78324;SDS011;67584;51.400;6.692;2023-06-14T00:04:03;6.63;;;5.35;;
78324;SDS011;67584;51.400;6.692;2023-06-14T00:06:30;8.07;;;5.72;;
78324;SDS011;67584;51.400;6.692;2023-06-14T00:08:56;6.60;;;5.90;;
78324;SDS011;67584;51.400;6.692;2023-06-14T00:11:22;9.70;;;6.38;;
78324;SDS011;67584;51.400;6.692;2023-06-14T00:13:48;6.05;;;5.50;;
78324;SDS011;67584;51.400;6.692;2023-06-14T00:16:13;8.10;;;6.18;;
78324;SDS011;67584;51.400;6.692;2023-06-14T00:18:39;7.32;;;6.63;;
78324;SDS011;67584;51.400;6.692;2023-06-14T00:21:05;7.35;;;5.88;;
78324;SDS011;67584;51.400;6.692;2023-06-14T00:23:30;6.85;;;6.00;;
78324;SDS011;67584;51.400;6.692;2023-06-14T00:25:56;6.65;;;6.03;;
78324;SDS011;67584;51.400;6.692;2023-06-14T00:28:22;7.15;;;5.88;;
78324;SDS011;67584;51.400;6.692;2023-06-14T00:30:47;8.18;;;6.22;;
78324;SDS011;67584;51.400;6.692;2023-06-14T00:33:13;7.75;;;7.05;;
78324;SDS011;67584;51.400;6.692;2023-06-14T00:35:41;6.80;;;5.82;;
78324;SDS011;67584;51.400;6.692;2023-06-14T00:38:07;9.93;;;6.93;;
78324;SDS011;67584;51.400;6.692;2023-06-14T00:40:32;8.05;;;7.00;;
78324;SDS011;67584;51.400;6.692;2023-06-14T00:43:00;8.77;;;5.97;;
78324;SDS011;67584;51.400;6.692;2023-06-14T00:45:25;7.82;;;6.30;;
78324;SDS011;67584;51.400;6.692;2023-06-14T00:47:51;7.00;;;6.30;;
78324;SDS011;67584;51.400;6.692;2023-06-14T00:50:20;7.82;;;5.75;;
78324;SDS011;67584;51.400;6.692;2023-06-14T00:52:47;7.10;;;6.05;;
78324;SDS011;67584;51.400;6.692;2023-06-14T00:55:13;6.72;;;5.85;;
78324;SDS011;67584;51.400;6.692;2023-06-14T00:57:38;7.20;;;5.85;;
78324;SDS011;67584;51.400;6.692;2023-06-14T01:00:05;7.32;;;6.10;;
78324;SDS011;67584;51.400;6.692;2023-06-14T01:02:38;6.85;;;6.25;;
78324;SDS011;67584;51.400;6.692;2023-06-14T01:05:04;7.07;;;6.35;;
78324;SDS011;67584;51.400;6.692;2023-06-14T01:10:45;9.65;;;6.38;;
78324;SDS011;67584;51.400;6.692;2023-06-14T01:16:11;5.80;;;5.30;;
78324;SDS011;67584;51.400;6.692;2023-06-14T01:18:37;10.98;;;5.95;;
78324;SDS011;67584;51.400;6.692;2023-06-14T01:21:04;6.50;;;5.85;;
78324;SDS011;67584;51.400;6.692;2023-06-14T01:23:31;7.63;;;5.70;;
78324;SDS011;67584;51.400;6.692;2023-06-14T01:25:58;8.27;;;6.60;;
78324;SDS011;67584;51.400;6.692;2023-06-14T01:28:25;5.95;;;5.20;;
78324;SDS011;67584;51.400;6.692;2023-06-14T01:30:57;6.85;;;5.88;;
78324;SDS011;67584;51.400;6.692;2023-06-14T01:33:28;6.88;;;5.85;;
78324;SDS011;67584;51.400;6.692;2023-06-14T01:35:57;8.52;;;5.82;;
78324;SDS011;67584;51.400;6.692;2023-06-14T01:38:24;8.80;;;5.60;;
78324;SDS011;67584;51.400;6.692;2023-06-14T01:40:51;6.15;;;5.55;;
78324;SDS011;67584;51.400;6.692;2023-06-14T01:43:19;7.60;;;5.55;;
78324;SDS011;67584;51.400;6.692;2023-06-14T01:45:46;6.68;;;5.72;;
78324;SDS011;67584;51.400;6.692;2023-06-14T01:48:14;6.38;;;5.38;;
78324;SDS011;67584;51.400;6.692;2023-06-14T01:50:40;6.45;;;5.32;;
78324;SDS011;67584;51.400;6.692;2023-06-14T01:53:09;6.10;;;5.50;;
78324;SDS011;67584;51.400;6.692;2023-06-14T01:55:36;6.65;;;5.85;;
78324;SDS011;67584;51.400;6.692;2023-06-14T01:58:05;6.05;;;5.45;;
78324;SDS011;67584;51.400;6.692;2023-06-14T02:00:31;8.40;;;6.60;;
78324;SDS011;67584;51.400;6.692;2023-06-14T02:02:57;6.25;;;5.65;;
78324;SDS011;67584;51.400;6.692;2023-06-14T02:05:25;7.53;;;5.60;;
78324;SDS011;67584;51.400;6.692;2023-06-14T02:07:51;8.60;;;5.88;;
78324;SDS011;67584;51.400;6.692;2023-06-14T02:10:18;7.20;;;5.43;;
78324;SDS011;67584;51.400;6.692;2023-06-14T02:12:46;6.65;;;5.63;;
78324;SDS011;67584;51.400;6.692;2023-06-14T02:15:11;6.57;;;5.47;;
78324;SDS011;67584;51.400;6.692;2023-06-14T02:17:44;6.40;;;5.18;;
78324;SDS011;67584;51.400;6.692;2023-06-14T02:20:12;6.55;;;5.85;;
78324;SDS011;67584;51.400;6.692;2023-06-14T02:22:38;7.28;;;5.45;;
78324;SDS011;67584;51.400;6.692;2023-06-14T02:25:06;8.45;;;6.32;;
78324;SDS011;67584;51.400;6.692;2023-06-14T02:27:32;7.82;;;6.75;;
78324;SDS011;67584;51.400;6.692;2023-06-14T02:29:59;6.15;;;5.32;;
78324;SDS011;67584;51.400;6.692;2023-06-14T02:32:25;7.80;;;5.85;;
78324;SDS011;67584;51.400;6.692;2023-06-14T02:34:54;6.80;;;5.20;;
78324;SDS011;67584;51.400;6.692;2023-06-14T02:37:20;7.45;;;5.57;;
78324;SDS011;67584;51.400;6.692;2023-06-14T02:39:45;6.07;;;5.47;;
78324;SDS011;67584;51.400;6.692;2023-06-14T02:42:11;6.35;;;5.70;;
78324;SDS011;67584;51.400;6.692;2023-06-14T02:44:37;8.48;;;5.72;;
78324;SDS011;67584;51.400;6.692;2023-06-14T02:47:03;5.80;;;5.07;;
78324;SDS011;67584;51.400;6.692;2023-06-14T02:49:30;8.63;;;6.13;;
78324;SDS011;67584;51.400;6.692;2023-06-14T02:51:56;5.90;;;5.30;;
78324;SDS011;67584;51.400;6.692;2023-06-14T02:54:21;5.97;;;5.38;;
78324;SDS011;67584;51.400;6.692;2023-06-14T02:56:47;7.07;;;5.32;;
78324;SDS011;67584;51.400;6.692;2023-06-14T02:59:13;7.43;;;5.88;;
78324;SDS011;67584;51.400;6.692;2023-06-14T03:01:39;5.40;;;4.68;;
78324;SDS011;67584;51.400;6.692;2023-06-14T03:06:35;6.32;;;5.28;;
78324;SDS011;67584;51.400;6.692;2023-06-14T03:09:02;6.95;;;5.55;;
78324;SDS011;67584;51.400;6.692;2023-06-14T03:11:34;6.47;;;5.00;;
78324;SDS011;67584;51.400;6.692;2023-06-14T03:14:01;6.30;;;5.25;;
78324;SDS011;67584;51.400;6.692;2023-06-14T03:16:29;6.18;;;5.35;;
78324;SDS011;67584;51.400;6.692;2023-06-14T03:18:57;6.88;;;5.22;;
78324;SDS011;67584;51.400;6.692;2023-06-14T03:21:25;9.85;;;5.63;;
78324;SDS011;67584;51.400;6.692;2023-06-14T03:23:52;6.78;;;5.05;;
78324;SDS011;67584;51.400;6.692;2023-06-14T03:26:18;7.30;;;5.13;;
78324;SDS011;67584;51.400;6.692;2023-06-14T03:28:46;7.38;;;5.78;;
78324;SDS011;67584;51.400;6.692;2023-06-14T03:31:13;7.05;;;5.43;;
78324;SDS011;67584;51.400;6.692;2023-06-14T03:33:39;6.68;;;5.63;;
78324;SDS011;67584;51.400;6.692;2023-06-14T03:36:05;6.45;;;5.57;;
78324;SDS011;67584;51.400;6.692;2023-06-14T03:38:32;7.88;;;5.38;;
78324;SDS011;67584;51.400;6.692;2023-06-14T03:40:58;6.60;;;5.25;;
78324;SDS011;67584;51.400;6.692;2023-06-14T03:43:24;5.78;;;5.18;;
78324;SDS011;67584;51.400;6.692;2023-06-14T03:45:50;6.40;;;4.63;;
78324;SDS011;67584;51.400;6.692;2023-06-14T03:48:17;5.75;;;4.88;;
78324;SDS011;67584;51.400;6.692;2023-06-14T03:50:43;6.25;;;4.43;;
78324;SDS011;67584;51.400;6.692;2023-06-14T03:53:10;6.15;;;5.32;;
78324;SDS011;67584;51.400;6.692;2023-06-14T03:55:39;8.18;;;5.10;;
78324;SDS011;67584;51.400;6.692;2023-06-14T03:58:06;6.22;;;5.50;;
78324;SDS011;67584;51.400;6.692;2023-06-14T04:00:32;6.45;;;4.93;;
78324;SDS011;67584;51.400;6.692;2023-06-14T04:02:58;5.20;;;4.50;;
78324;SDS011;67584;51.400;6.692;2023-06-14T04:05:24;8.65;;;5.22;;
78324;SDS011;67584;51.400;6.692;2023-06-14T04:07:53;7.00;;;4.80;;
78324;SDS011;67584;51.400;6.692;2023-06-14T04:10:21;8.27;;;4.72;;
78324;SDS011;67584;51.400;6.692;2023-06-14T04:12:46;4.75;;;4.25;;
78324;SDS011;67584;51.400;6.692;2023-06-14T04:15:12;7.22;;;4.85;;
78324;SDS011;67584;51.400;6.692;2023-06-14T04:17:38;5.40;;;4.78;;
78324;SDS011;67584;51.400;6.692;2023-06-14T04:20:05;5.88;;;4.55;;
78324;SDS011;67584;51.400;6.692;2023-06-14T04:22:33;5.00;;;4.50;;
78324;SDS011;67584;51.400;6.692;2023-06-14T04:27:27;5.95;;;4.40;;
78324;SDS011;67584;51.400;6.692;2023-06-14T04:29:56;4.95;;;4.45;;
78324;SDS011;67584;51.400;6.692;2023-06-14T04:32:26;5.32;;;4.32;;
78324;SDS011;67584;51.400;6.692;2023-06-14T04:34:55;5.40;;;4.22;;
78324;SDS011;67584;51.400;6.692;2023-06-14T04:37:22;5.15;;;4.22;;
78324;SDS011;67584;51.400;6.692;2023-06-14T04:39:48;5.57;;;4.88;;
78324;SDS011;67584;51.400;6.692;2023-06-14T04:42:16;8.07;;;4.50;;
78324;SDS011;67584;51.400;6.692;2023-06-14T04:44:43;5.80;;;4.82;;
78324;SDS011;67584;51.400;6.692;2023-06-14T04:47:10;5.03;;;4.32;;
78324;SDS011;67584;51.400;6.692;2023-06-14T04:49:37;7.60;;;4.97;;
78324;SDS011;67584;51.400;6.692;2023-06-14T04:52:05;4.88;;;4.22;;
78324;SDS011;67584;51.400;6.692;2023-06-14T04:54:34;6.28;;;5.22;;
78324;SDS011;67584;51.400;6.692;2023-06-14T04:57:04;6.53;;;4.43;;
78324;SDS011;67584;51.400;6.692;2023-06-14T04:59:31;7.38;;;4.97;;
78324;SDS011;67584;51.400;6.692;2023-06-14T05:01:58;5.95;;;4.10;;
78324;SDS011;67584;51.400;6.692;2023-06-14T05:04:25;4.55;;;4.03;;
78324;SDS011;67584;51.400;6.692;2023-06-14T05:06:53;5.45;;;4.38;;
78324;SDS011;67584;51.400;6.692;2023-06-14T05:09:22;5.78;;;3.67;;
78324;SDS011;67584;51.400;6.692;2023-06-14T05:11:49;7.13;;;4.80;;
78324;SDS011;67584;51.400;6.692;2023-06-14T05:14:15;6.40;;;4.82;;
78324;SDS011;67584;51.400;6.692;2023-06-14T05:16:41;5.75;;;4.32;;
78324;SDS011;67584;51.400;6.692;2023-06-14T05:19:08;6.25;;;4.22;;
78324;SDS011;67584;51.400;6.692;2023-06-14T05:21:33;5.65;;;3.92;;
78324;SDS011;67584;51.400;6.692;2023-06-14T05:24:00;6.70;;;3.97;;
78324;SDS011;67584;51.400;6.692;2023-06-14T05:26:26;4.85;;;3.88;;
78324;SDS011;67584;51.400;6.692;2023-06-14T05:28:55;6.25;;;4.13;;
78324;SDS011;67584;51.400;6.692;2023-06-14T05:31:22;7.18;;;4.30;;
78324;SDS011;67584;51.400;6.692;2023-06-14T05:33:49;4.82;;;4.30;;
78324;SDS011;67584;51.400;6.692;2023-06-14T05:36:16;6.82;;;4.70;;
78324;SDS011;67584;51.400;6.692;2023-06-14T05:38:42;5.75;;;4.30;;
78324;SDS011;67584;51.400;6.692;2023-06-14T05:41:07;5.80;;;4.43;;
78324;SDS011;67584;51.400;6.692;2023-06-14T05:43:33;6.00;;;3.83;;
78324;SDS011;67584;51.400;6.692;2023-06-14T05:45:58;6.97;;;3.85;;
78324;SDS011;67584;51.400;6.692;2023-06-14T05:48:24;6.43;;;4.20;;
78324;SDS011;67584;51.400;6.692;2023-06-14T05:50:50;6.72;;;3.80;;
78324;SDS011;67584;51.400;6.692;2023-06-14T05:53:15;5.20;;;4.15;;
78324;SDS011;67584;51.400;6.692;2023-06-14T05:55:41;4.68;;;4.22;;
78324;SDS011;67584;51.400;6.692;2023-06-14T05:58:07;4.65;;;3.97;;
78324;SDS011;67584;51.400;6.692;2023-06-14T06:00:32;6.82;;;4.45;;
78324;SDS011;67584;51.400;6.692;2023-06-14T06:02:58;8.68;;;4.90;;
78324;SDS011;67584;51.400;6.692;2023-06-14T06:05:24;4.72;;;4.10;;
78324;SDS011;67584;51.400;6.692;2023-06-14T06:07:50;6.25;;;4.45;;
78324;SDS011;67584;51.400;6.692;2023-06-14T06:10:16;6.00;;;4.50;;
78324;SDS011;67584;51.400;6.692;2023-06-14T06:12:42;6.20;;;4.22;;
78324;SDS011;67584;51.400;6.692;2023-06-14T06:15:08;4.63;;;4.13;;
78324;SDS011;67584;51.400;6.692;2023-06-14T06:17:37;4.97;;;4.18;;
78324;SDS011;67584;51.400;6.692;2023-06-14T06:20:04;8.15;;;4.35;;
78324;SDS011;67584;51.400;6.692;2023-06-14T06:22:33;5.93;;;5.30;;
78324;SDS011;67584;51.400;6.692;2023-06-14T06:24:58;5.63;;;3.97;;
78324;SDS011;67584;51.400;6.692;2023-06-14T06:27:24;6.43;;;4.40;;
78324;SDS011;67584;51.400;6.692;2023-06-14T06:29:50;5.25;;;3.58;;
78324;SDS011;67584;51.400;6.692;2023-06-14T06:32:16;5.85;;;3.90;;
78324;SDS011;67584;51.400;6.692;2023-06-14T06:34:42;6.65;;;3.70;;
78324;SDS011;67584;51.400;6.692;2023-06-14T06:37:08;5.93;;;3.60;;
78324;SDS011;67584;51.400;6.692;2023-06-14T06:39:37;5.43;;;3.80;;
78324;SDS011;67584;51.400;6.692;2023-06-14T06:42:03;6.03;;;3.55;;
78324;SDS011;67584;51.400;6.692;2023-06-14T06:44:35;4.53;;;3.60;;
78324;SDS011;67584;51.400;6.692;2023-06-14T06:47:01;5.18;;;4.03;;
78324;SDS011;67584;51.400;6.692;2023-06-14T06:49:27;5.65;;;3.60;;
78324;SDS011;67584;51.400;6.692;2023-06-14T06:52:00;5.57;;;3.60;;
78324;SDS011;67584;51.400;6.692;2023-06-14T06:54:29;7.68;;;3.58;;
78324;SDS011;67584;51.400;6.692;2023-06-14T06:56:55;6.30;;;3.38;;
78324;SDS011;67584;51.400;6.692;2023-06-14T06:59:21;5.25;;;3.38;;
78324;SDS011;67584;51.400;6.692;2023-06-14T07:01:47;5.53;;;3.50;;
78324;SDS011;67584;51.400;6.692;2023-06-14T07:04:13;4.80;;;3.10;;
78324;SDS011;67584;51.400;6.692;2023-06-14T07:06:39;3.42;;;2.83;;
78324;SDS011;67584;51.400;6.692;2023-06-14T07:09:04;3.15;;;2.53;;
78324;SDS011;67584;51.400;6.692;2023-06-14T07:11:33;5.47;;;2.88;;
78324;SDS011;67584;51.400;6.692;2023-06-14T07:13:59;4.65;;;3.00;;
78324;SDS011;67584;51.400;6.692;2023-06-14T07:16:25;4.95;;;3.10;;
78324;SDS011;67584;51.400;6.692;2023-06-14T07:18:51;4.00;;;3.20;;
78324;SDS011;67584;51.400;6.692;2023-06-14T07:21:17;3.80;;;2.97;;
78324;SDS011;67584;51.400;6.692;2023-06-14T07:23:43;4.40;;;2.50;;
78324;SDS011;67584;51.400;6.692;2023-06-14T07:26:09;2.72;;;2.40;;
78324;SDS011;67584;51.400;6.692;2023-06-14T07:28:34;6.43;;;2.90;;
78324;SDS011;67584;51.400;6.692;2023-06-14T07:31:01;4.22;;;2.95;;
78324;SDS011;67584;51.400;6.692;2023-06-14T07:33:27;2.75;;;2.20;;
78324;SDS011;67584;51.400;6.692;2023-06-14T07:35:53;4.68;;;3.20;;
78324;SDS011;67584;51.400;6.692;2023-06-14T07:38:19;2.95;;;2.55;;
78324;SDS011;67584;51.400;6.692;2023-06-14T07:40:45;8.48;;;2.40;;
78324;SDS011;67584;51.400;6.692;2023-06-14T07:43:10;3.38;;;2.70;;
78324;SDS011;67584;51.400;6.692;2023-06-14T07:45:36;4.38;;;2.75;;
78324;SDS011;67584;51.400;6.692;2023-06-14T07:48:02;2.63;;;2.42;;
78324;SDS011;67584;51.400;6.692;2023-06-14T07:50:28;4.38;;;2.33;;
78324;SDS011;67584;51.400;6.692;2023-06-14T07:52:54;3.92;;;2.63;;
78324;SDS011;67584;51.400;6.692;2023-06-14T07:55:20;3.58;;;2.78;;
78324;SDS011;67584;51.400;6.692;2023-06-14T07:57:45;3.17;;;2.70;;
78324;SDS011;67584;51.400;6.692;2023-06-14T08:00:11;3.92;;;2.30;;
78324;SDS011;67584;51.400;6.692;2023-06-14T08:02:43;3.60;;;2.22;;
78324;SDS011;67584;51.400;6.692;2023-06-14T08:05:12;5.00;;;2.92;;
78324;SDS011;67584;51.400;6.692;2023-06-14T08:07:38;3.75;;;2.67;;
78324;SDS011;67584;51.400;6.692;2023-06-14T08:10:05;4.28;;;2.80;;
78324;SDS011;67584;51.400;6.692;2023-06-14T08:12:32;5.38;;;3.65;;
78324;SDS011;67584;51.400;6.692;2023-06-14T08:14:58;4.38;;;2.70;;
78324;SDS011;67584;51.400;6.692;2023-06-14T08:17:24;3.30;;;2.75;;
78324;SDS011;67584;51.400;6.692;2023-06-14T08:19:50;3.25;;;2.95;;
78324;SDS011;67584;51.400;6.692;2023-06-14T08:22:16;3.92;;;2.83;;
78324;SDS011;67584;51.400;6.692;2023-06-14T08:24:43;5.10;;;2.88;;
78324;SDS011;67584;51.400;6.692;2023-06-14T08:27:09;6.20;;;2.97;;
78324;SDS011;67584;51.400;6.692;2023-06-14T08:29:35;3.78;;;2.65;;
78324;SDS011;67584;51.400;6.692;2023-06-14T08:32:03;6.55;;;3.38;;
78324;SDS011;67584;51.400;6.692;2023-06-14T08:34:29;3.15;;;2.55;;
78324;SDS011;67584;51.400;6.692;2023-06-14T08:36:55;3.50;;;2.35;;
78324;SDS011;67584;51.400;6.692;2023-06-14T08:39:20;5.35;;;4.00;;
78324;SDS011;67584;51.400;6.692;2023-06-14T08:41:47;4.55;;;2.78;;
78324;SDS011;67584;51.400;6.692;2023-06-14T08:44:19;4.53;;;3.15;;
78324;SDS011;67584;51.400;6.692;2023-06-14T08:46:44;2.95;;;2.47;;
78324;SDS011;67584;51.400;6.692;2023-06-14T08:49:12;6.47;;;2.90;;
78324;SDS011;67584;51.400;6.692;2023-06-14T08:51:41;4.10;;;3.20;;
78324;SDS011;67584;51.400;6.692;2023-06-14T08:54:08;3.72;;;2.60;;
78324;SDS011;67584;51.400;6.692;2023-06-14T08:56:37;4.35;;;2.90;;
78324;SDS011;67584;51.400;6.692;2023-06-14T08:59:06;4.45;;;2.63;;
78324;SDS011;67584;51.400;6.692;2023-06-14T09:01:34;3.67;;;2.50;;
78324;SDS011;67584;51.400;6.692;2023-06-14T09:04:00;5.50;;;2.97;;
78324;SDS011;67584;51.400;6.692;2023-06-14T09:06:27;3.22;;;2.75;;
78324;SDS011;67584;51.400;6.692;2023-06-14T09:08:54;3.85;;;3.47;;
78324;SDS011;67584;51.400;6.692;2023-06-14T09:11:23;7.93;;;2.90;;
78324;SDS011;67584;51.400;6.692;2023-06-14T09:13:50;3.92;;;3.05;;
78324;SDS011;67584;51.400;6.692;2023-06-14T09:16:16;4.03;;;2.47;;
78324;SDS011;67584;51.400;6.692;2023-06-14T09:18:43;4.13;;;2.70;;
78324;SDS011;67584;51.400;6.692;2023-06-14T09:21:10;3.22;;;2.92;;
78324;SDS011;67584;51.400;6.692;2023-06-14T09:23:37;3.20;;;2.50;;
78324;SDS011;67584;51.400;6.692;2023-06-14T09:26:08;3.42;;;2.67;;
78324;SDS011;67584;51.400;6.692;2023-06-14T09:28:33;3.50;;;3.20;;
78324;SDS011;67584;51.400;6.692;2023-06-14T09:31:00;4.70;;;2.88;;
78324;SDS011;67584;51.400;6.692;2023-06-14T09:33:26;6.22;;;3.22;;
78324;SDS011;67584;51.400;6.692;2023-06-14T09:35:53;4.50;;;3.17;;
78324;SDS011;67584;51.400;6.692;2023-06-14T09:38:20;4.30;;;3.15;;
78324;SDS011;67584;51.400;6.692;2023-06-14T09:40:46;5.85;;;2.67;;
78324;SDS011;67584;51.400;6.692;2023-06-14T09:43:11;4.82;;;2.85;;
78324;SDS011;67584;51.400;6.692;2023-06-14T09:45:40;4.78;;;2.92;;
78324;SDS011;67584;51.400;6.692;2023-06-14T09:48:10;3.40;;;2.70;;
78324;SDS011;67584;51.400;6.692;2023-06-14T09:50:37;3.88;;;2.65;;
78324;SDS011;67584;51.400;6.692;2023-06-14T09:53:07;3.83;;;2.38;;
78324;SDS011;67584;51.400;6.692;2023-06-14T09:55:36;3.13;;;2.83;;
78324;SDS011;67584;51.400;6.692;2023-06-14T09:58:06;4.55;;;2.80;;
78324;SDS011;67584;51.400;6.692;2023-06-14T10:00:35;4.47;;;2.88;;
78324;SDS011;67584;51.400;6.692;2023-06-14T10:03:21;4.57;;;2.58;;
78324;SDS011;67584;51.400;6.692;2023-06-14T10:05:51;4.07;;;2.38;;
78324;SDS011;67584;51.400;6.692;2023-06-14T10:08:19;2.92;;;2.47;;
78324;SDS011;67584;51.400;6.692;2023-06-14T10:10:50;3.05;;;2.70;;
78324;SDS011;67584;51.400;6.692;2023-06-14T10:13:16;2.67;;;2.40;;
78324;SDS011;67584;51.400;6.692;2023-06-14T10:20:58;3.45;;;2.80;;
78324;SDS011;67584;51.400;6.692;2023-06-14T10:23:44;5.15;;;2.28;;
78324;SDS011;67584;51.400;6.692;2023-06-14T10:26:21;3.33;;;2.30;;
78324;SDS011;67584;51.400;6.692;2023-06-14T10:29:07;2.90;;;2.10;;
78324;SDS011;67584;51.400;6.692;2023-06-14T10:31:41;4.57;;;2.40;;
78324;SDS011;67584;51.400;6.692;2023-06-14T10:34:29;3.55;;;2.20;;
78324;SDS011;67584;51.400;6.692;2023-06-14T10:37:12;3.38;;;2.45;;
78324;SDS011;67584;51.400;6.692;2023-06-14T10:39:39;4.57;;;2.33;;
78324;SDS011;67584;51.400;6.692;2023-06-14T10:42:07;2.80;;;2.17;;
78324;SDS011;67584;51.400;6.692;2023-06-14T10:47:09;2.95;;;2.75;;
78324;SDS011;67584;51.400;6.692;2023-06-14T10:49:45;12.35;;;2.50;;
78324;SDS011;67584;51.400;6.692;2023-06-14T10:52:17;3.65;;;2.17;;
78324;SDS011;67584;51.400;6.692;2023-06-14T11:00:14;2.20;;;1.90;;
78324;SDS011;67584;51.400;6.692;2023-06-14T11:02:46;2.65;;;2.15;;
78324;SDS011;67584;51.400;6.692;2023-06-14T11:05:23;2.83;;;2.08;;
78324;SDS011;67584;51.400;6.692;2023-06-14T11:10:32;5.00;;;2.10;;
78324;SDS011;67584;51.400;6.692;2023-06-14T11:13:05;2.65;;;2.45;;
78324;SDS011;67584;51.400;6.692;2023-06-14T11:15:32;3.50;;;3.20;;
78324;SDS011;67584;51.400;6.692;2023-06-14T11:18:02;3.25;;;2.45;;
78324;SDS011;67584;51.400;6.692;2023-06-14T11:20:32;2.47;;;2.28;;
78324;SDS011;67584;51.400;6.692;2023-06-14T11:23:00;3.45;;;2.80;;
78324;SDS011;67584;51.400;6.692;2023-06-14T11:25:26;2.75;;;2.55;;
78324;SDS011;67584;51.400;6.692;2023-06-14T11:27:55;2.38;;;1.98;;
78324;SDS011;67584;51.400;6.692;2023-06-14T11:30:21;3.55;;;2.55;;
78324;SDS011;67584;51.400;6.692;2023-06-14T11:32:48;3.58;;;3.28;;
78324;SDS011;67584;51.400;6.692;2023-06-14T11:35:15;3.50;;;2.75;;
78324;SDS011;67584;51.400;6.692;2023-06-14T11:37:42;3.28;;;2.97;;
78324;SDS011;67584;51.400;6.692;2023-06-14T11:40:10;4.57;;;3.13;;
78324;SDS011;67584;51.400;6.692;2023-06-14T11:42:37;4.05;;;2.65;;
78324;SDS011;67584;51.400;6.692;2023-06-14T11:45:04;3.67;;;2.65;;
78324;SDS011;67584;51.400;6.692;2023-06-14T11:47:32;3.78;;;3.10;;
78324;SDS011;67584;51.400;6.692;2023-06-14T11:49:59;2.85;;;2.65;;
78324;SDS011;67584;51.400;6.692;2023-06-14T11:52:26;7.18;;;3.25;;
78324;SDS011;67584;51.400;6.692;2023-06-14T11:54:52;4.25;;;3.13;;
78324;SDS011;67584;51.400;6.692;2023-06-14T11:57:24;3.40;;;2.50;;
78324;SDS011;67584;51.400;6.692;2023-06-14T11:59:51;4.03;;;2.85;;
78324;SDS011;67584;51.400;6.692;2023-06-14T12:02:17;3.67;;;3.38;;
78324;SDS011;67584;51.400;6.692;2023-06-14T12:04:46;3.35;;;2.85;;
78324;SDS011;67584;51.400;6.692;2023-06-14T12:07:16;4.70;;;3.13;;
78324;SDS011;67584;51.400;6.692;2023-06-14T12:12:26;3.28;;;2.70;;
78324;SDS011;67584;51.400;6.692;2023-06-14T12:14:52;3.25;;;2.63;;
78324;SDS011;67584;51.400;6.692;2023-06-14T12:17:21;2.72;;;2.53;;
78324;SDS011;67584;51.400;6.692;2023-06-14T12:19:48;3.13;;;2.65;;
78324;SDS011;67584;51.400;6.692;2023-06-14T12:22:15;3.78;;;2.90;;
78324;SDS011;67584;51.400;6.692;2023-06-14T12:24:45;3.80;;;2.47;;
78324;SDS011;67584;51.400;6.692;2023-06-14T12:27:11;3.13;;;2.83;;
78324;SDS011;67584;51.400;6.692;2023-06-14T12:29:40;3.55;;;2.80;;
78324;SDS011;67584;51.400;6.692;2023-06-14T12:32:09;3.75;;;2.83;;
78324;SDS011;67584;51.400;6.692;2023-06-14T12:34:35;3.47;;;3.13;;
78324;SDS011;67584;51.400;6.692;2023-06-14T12:37:01;3.28;;;3.00;;
78324;SDS011;67584;51.400;6.692;2023-06-14T12:39:28;3.17;;;2.88;;
78324;SDS011;67584;51.400;6.692;2023-06-14T12:41:55;3.25;;;2.85;;
78324;SDS011;67584;51.400;6.692;2023-06-14T12:44:20;4.53;;;2.88;;
78324;SDS011;67584;51.400;6.692;2023-06-14T12:46:46;3.13;;;2.83;;
78324;SDS011;67584;51.400;6.692;2023-06-14T12:49:12;3.15;;;2.95;;
78324;SDS011;67584;51.400;6.692;2023-06-14T12:51:38;3.83;;;3.05;;
78324;SDS011;67584;51.400;6.692;2023-06-14T12:54:05;3.42;;;2.97;;
78324;SDS011;67584;51.400;6.692;2023-06-14T12:56:31;4.13;;;3.83;;
78324;SDS011;67584;51.400;6.692;2023-06-14T12:58:57;4.18;;;2.78;;
78324;SDS011;67584;51.400;6.692;2023-06-14T13:01:23;3.40;;;3.00;;
78324;SDS011;67584;51.400;6.692;2023-06-14T13:03:49;3.58;;;3.28;;
78324;SDS011;67584;51.400;6.692;2023-06-14T13:06:16;4.60;;;3.75;;
78324;SDS011;67584;51.400;6.692;2023-06-14T13:08:43;3.67;;;3.10;;
78324;SDS011;67584;51.400;6.692;2023-06-14T13:11:08;4.20;;;3.70;;
78324;SDS011;67584;51.400;6.692;2023-06-14T13:13:34;3.25;;;3.05;;
78324;SDS011;67584;51.400;6.692;2023-06-14T13:16:00;4.82;;;3.13;;
78324;SDS011;67584;51.400;6.692;2023-06-14T13:18:26;4.05;;;3.65;;
78324;SDS011;67584;51.400;6.692;2023-06-14T13:20:51;3.70;;;3.40;;
78324;SDS011;67584;51.400;6.692;2023-06-14T13:23:17;5.88;;;3.50;;
78324;SDS011;67584;51.400;6.692;2023-06-14T13:25:43;4.03;;;3.40;;
78324;SDS011;67584;51.400;6.692;2023-06-14T13:28:08;3.75;;;3.45;;
78324;SDS011;67584;51.400;6.692;2023-06-14T13:30:34;4.20;;;3.80;;
78324;SDS011;67584;51.400;6.692;2023-06-14T13:33:00;3.90;;;3.60;;
78324;SDS011;67584;51.400;6.692;2023-06-14T13:35:26;4.22;;;3.83;;
78324;SDS011;67584;51.400;6.692;2023-06-14T13:37:52;4.43;;;4.05;;
78324;SDS011;67584;51.400;6.692;2023-06-14T13:40:18;4.25;;;3.85;;
78324;SDS011;67584;51.400;6.692;2023-06-14T13:42:43;4.22;;;3.80;;
78324;SDS011;67584;51.400;6.692;2023-06-14T13:45:11;4.53;;;3.65;;
78324;SDS011;67584;51.400;6.692;2023-06-14T13:47:38;4.70;;;4.30;;
78324;SDS011;67584;51.400;6.692;2023-06-14T13:50:04;4.25;;;3.90;;
78324;SDS011;67584;51.400;6.692;2023-06-14T13:52:30;3.60;;;3.30;;
78324;SDS011;67584;51.400;6.692;2023-06-14T13:54:56;3.72;;;3.42;;
78324;SDS011;67584;51.400;6.692;2023-06-14T13:57:22;4.00;;;3.53;;
78324;SDS011;67584;51.400;6.692;2023-06-14T13:59:48;4.15;;;3.80;;
78324;SDS011;67584;51.400;6.692;2023-06-14T14:02:14;6.40;;;4.75;;
78324;SDS011;67584;51.400;6.692;2023-06-14T14:04:39;5.85;;;3.58;;
78324;SDS011;67584;51.400;6.692;2023-06-14T14:07:05;4.82;;;4.00;;
78324;SDS011;67584;51.400;6.692;2023-06-14T14:09:32;6.20;;;4.32;;
78324;SDS011;67584;51.400;6.692;2023-06-14T14:11:59;5.53;;;4.32;;
78324;SDS011;67584;51.400;6.692;2023-06-14T14:14:26;4.57;;;4.25;;
78324;SDS011;67584;51.400;6.692;2023-06-14T14:16:52;4.07;;;3.67;;
78324;SDS011;67584;51.400;6.692;2023-06-14T14:19:20;6.55;;;4.90;;
78324;SDS011;67584;51.400;6.692;2023-06-14T14:21:46;4.93;;;3.08;;
78324;SDS011;67584;51.400;6.692;2023-06-14T14:24:11;4.15;;;3.85;;
78324;SDS011;67584;51.400;6.692;2023-06-14T14:26:38;4.38;;;3.97;;
78324;SDS011;67584;51.400;6.692;2023-06-14T14:29:04;4.32;;;3.90;;
78324;SDS011;67584;51.400;6.692;2023-06-14T14:31:29;5.45;;;4.53;;
78324;SDS011;67584;51.400;6.692;2023-06-14T14:33:55;5.60;;;4.75;;
78324;SDS011;67584;51.400;6.692;2023-06-14T14:36:21;4.82;;;3.88;;
78324;SDS011;67584;51.400;6.692;2023-06-14T14:38:46;5.85;;;3.55;;
78324;SDS011;67584;51.400;6.692;2023-06-14T14:41:13;4.65;;;4.13;;
78324;SDS011;67584;51.400;6.692;2023-06-14T14:43:38;4.45;;;4.05;;
78324;SDS011;67584;51.400;6.692;2023-06-14T14:46:04;9.38;;;5.50;;
78324;SDS011;67584;51.400;6.692;2023-06-14T14:48:30;5.18;;;4.30;;
78324;SDS011;67584;51.400;6.692;2023-06-14T14:51:02;5.32;;;4.10;;
78324;SDS011;67584;51.400;6.692;2023-06-14T14:53:28;4.38;;;3.90;;
78324;SDS011;67584;51.400;6.692;2023-06-14T14:55:54;7.25;;;4.10;;
78324;SDS011;67584;51.400;6.692;2023-06-14T14:58:20;3.65;;;3.03;;
78324;SDS011;67584;51.400;6.692;2023-06-14T15:00:46;5.53;;;4.30;;
78324;SDS011;67584;51.400;6.692;2023-06-14T15:03:12;3.92;;;3.38;;
78324;SDS011;67584;51.400;6.692;2023-06-14T15:05:39;5.35;;;4.43;;
78324;SDS011;67584;51.400;6.692;2023-06-14T15:08:05;5.25;;;4.00;;
78324;SDS011;67584;51.400;6.692;2023-06-14T15:10:37;3.75;;;3.40;;
78324;SDS011;67584;51.400;6.692;2023-06-14T15:13:06;3.25;;;2.95;;
78324;SDS011;67584;51.400;6.692;2023-06-14T15:15:35;5.40;;;3.95;;
78324;SDS011;67584;51.400;6.692;2023-06-14T15:18:01;4.38;;;3.95;;